createdAt,value
2018-09-27T00:00:41.893Z,25.80
2018-09-27T00:03:14.080Z,25.60
2018-09-27T00:05:45.712Z,26.57
2018-09-27T00:08:17.282Z,23.37
2018-09-27T00:10:48.677Z,25.27
2018-09-27T00:13:21.225Z,23.60
2018-09-27T00:15:52.744Z,23.50
2018-09-27T00:18:24.041Z,25.87
2018-09-27T00:20:55.557Z,24.80
2018-09-27T00:23:27.172Z,23.30
2018-09-27T00:25:58.480Z,25.13
2018-09-27T00:28:30.073Z,25.77
2018-09-27T00:31:01.618Z,24.87
2018-09-27T00:33:33.332Z,26.13
2018-09-27T00:36:05.101Z,25.90
2018-09-27T00:38:37.170Z,24.97
2018-09-27T00:41:08.414Z,25.50
2018-09-27T00:43:39.828Z,25.40
2018-09-27T00:46:11.441Z,24.57
2018-09-27T00:48:43.247Z,24.57
2018-09-27T00:51:14.437Z,26.97
2018-09-27T00:53:47.453Z,26.10
2018-09-27T00:56:18.733Z,25.40
2018-09-27T00:58:50.738Z,26.00
2018-09-27T01:01:22.261Z,24.40
2018-09-27T01:03:53.968Z,25.87
2018-09-27T01:06:25.525Z,24.20
2018-09-27T01:08:57.340Z,26.70
2018-09-27T01:11:28.510Z,26.00
2018-09-27T01:14:00.284Z,27.23
2018-09-27T01:16:31.265Z,27.47
2018-09-27T01:19:02.768Z,23.47
2018-09-27T01:21:34.165Z,25.57
2018-09-27T01:24:05.971Z,26.30
2018-09-27T01:26:37.298Z,22.77
2018-09-27T01:29:09.017Z,23.60
2018-09-27T01:31:40.285Z,23.93
2018-09-27T01:34:11.785Z,24.27
2018-09-27T01:36:42.925Z,23.57
2018-09-27T01:39:14.833Z,23.33
2018-09-27T01:41:46.405Z,24.00
2018-09-27T01:44:18.341Z,25.63
2018-09-27T01:46:49.608Z,24.47
2018-09-27T01:49:21.148Z,25.20
2018-09-27T01:51:52.693Z,25.10
2018-09-27T01:54:26.122Z,22.17
2018-09-27T01:56:57.322Z,23.37
2018-09-27T01:59:29.638Z,23.80
2018-09-27T02:02:01.165Z,23.80
2018-09-27T02:04:32.680Z,24.07
2018-09-27T02:07:04.042Z,24.37
2018-09-27T02:09:35.605Z,24.33
2018-09-27T02:12:07.009Z,25.00
2018-09-27T02:14:38.821Z,23.37
2018-09-27T02:17:10.252Z,24.47
2018-09-27T02:19:41.807Z,26.40
2018-09-27T02:22:13.250Z,24.57
2018-09-27T02:24:44.638Z,26.10
2018-09-27T02:27:16.534Z,26.90
2018-09-27T02:29:48.018Z,23.80
2018-09-27T02:32:19.106Z,25.70
2018-09-27T02:34:50.707Z,25.10
2018-09-27T02:37:21.806Z,24.33
2018-09-27T02:39:53.175Z,28.33
2018-09-27T02:42:24.553Z,24.57
2018-09-27T02:44:55.906Z,24.80
2018-09-27T02:47:27.146Z,26.07
2018-09-27T02:49:59.442Z,25.77
2018-09-27T02:52:33.378Z,26.17
2018-09-27T02:55:05.539Z,23.50
2018-09-27T02:57:39.375Z,25.53
2018-09-27T03:00:12.541Z,25.27
2018-09-27T03:02:44.059Z,24.80
2018-09-27T03:05:15.582Z,25.03
2018-09-27T03:07:47.235Z,24.87
2018-09-27T03:10:18.761Z,25.37
2018-09-27T03:12:50.045Z,25.17
2018-09-27T03:15:21.808Z,23.70
2018-09-27T03:17:53.009Z,26.17
2018-09-27T03:20:24.602Z,24.77
2018-09-27T03:22:56.058Z,24.77
2018-09-27T03:25:27.514Z,24.33
2018-09-27T03:27:58.884Z,22.17
2018-09-27T03:30:30.158Z,23.33
2018-09-27T03:33:02.397Z,23.30
2018-09-27T03:35:33.938Z,24.10
2018-09-27T03:38:05.530Z,23.47
2018-09-27T03:40:36.971Z,25.10
2018-09-27T03:43:08.455Z,25.07
2018-09-27T03:45:40.058Z,23.53
2018-09-27T03:48:11.297Z,24.20
2018-09-27T03:50:42.534Z,23.00
2018-09-27T03:53:13.693Z,23.60
2018-09-27T03:55:47.779Z,24.70
2018-09-27T03:58:19.158Z,23.63
2018-09-27T04:00:50.677Z,25.13
2018-09-27T04:03:22.079Z,24.07
2018-09-27T04:05:53.607Z,26.00
2018-09-27T04:08:24.922Z,25.40
2018-09-27T04:10:56.338Z,26.50
2018-09-27T04:13:27.623Z,28.10
2018-09-27T04:15:59.137Z,27.97
2018-09-27T04:18:30.346Z,28.93
2018-09-27T04:21:02.626Z,27.93
2018-09-27T04:23:33.658Z,28.63
2018-09-27T04:26:06.003Z,31.03
2018-09-27T04:28:37.366Z,31.10
2018-09-27T04:31:08.917Z,31.27
2018-09-27T04:33:40.243Z,31.03
2018-09-27T04:36:11.609Z,29.93
2018-09-27T04:38:43.086Z,29.70
2018-09-27T04:41:14.987Z,30.17
2018-09-27T04:43:46.307Z,29.00
2018-09-27T04:46:17.995Z,30.90
2018-09-27T04:48:49.446Z,29.47
2018-09-27T04:51:21.059Z,34.57
2018-09-27T04:53:52.423Z,28.97
2018-09-27T04:56:24.518Z,29.80
2018-09-27T04:58:55.685Z,28.57
2018-09-27T05:01:27.243Z,29.37
2018-09-27T05:03:58.536Z,27.47
2018-09-27T05:06:30.023Z,27.67
2018-09-27T05:09:01.173Z,26.97
2018-09-27T05:11:32.894Z,26.55
2018-09-27T05:14:04.137Z,25.03
2018-09-27T05:16:35.922Z,25.08
2018-09-27T05:19:07.437Z,23.35
2018-09-27T05:21:38.997Z,24.70
2018-09-27T05:24:10.399Z,25.10
2018-09-27T05:26:41.662Z,24.55
2018-09-27T05:29:12.903Z,23.00
2018-09-27T05:31:46.162Z,24.70
2018-09-27T05:34:17.346Z,26.00
2018-09-27T05:36:48.637Z,27.07
2018-09-27T05:39:20.039Z,24.80
2018-09-27T05:41:52.030Z,25.43
2018-09-27T05:44:23.261Z,27.50
2018-09-27T05:46:55.075Z,27.47
2018-09-27T05:49:26.410Z,26.57
2018-09-27T05:51:57.963Z,27.03
2018-09-27T05:54:29.051Z,25.80
2018-09-27T05:57:00.478Z,25.75
2018-09-27T05:59:31.341Z,24.40
2018-09-27T06:02:02.595Z,25.23
2018-09-27T06:04:33.548Z,25.08
2018-09-27T06:07:05.310Z,26.52
2018-09-27T06:09:36.228Z,24.10
2018-09-27T06:12:07.169Z,23.87
2018-09-27T06:14:38.331Z,24.98
2018-09-27T06:17:09.938Z,25.12
2018-09-27T06:19:41.267Z,26.45
2018-09-27T06:22:13.158Z,23.75
2018-09-27T06:24:44.367Z,23.73
2018-09-27T06:27:15.923Z,25.90
2018-09-27T06:29:47.401Z,25.50
2018-09-27T06:32:20.882Z,22.90
2018-09-27T06:34:52.847Z,24.40
2018-09-27T06:37:24.742Z,22.57
2018-09-27T06:39:56.077Z,22.80
2018-09-27T06:42:27.493Z,25.87
2018-09-27T06:44:58.867Z,24.07
2018-09-27T06:47:30.377Z,26.40
2018-09-27T06:50:02.286Z,24.13
2018-09-27T06:52:33.790Z,26.67
2018-09-27T06:55:05.361Z,23.03
2018-09-27T06:57:36.737Z,23.00
2018-09-27T07:00:08.777Z,22.37
2018-09-27T07:02:40.499Z,22.10
2018-09-27T07:05:13.485Z,24.37
2018-09-27T07:07:44.994Z,23.77
2018-09-27T07:10:16.362Z,22.53
2018-09-27T07:12:47.986Z,22.07
2018-09-27T07:15:19.257Z,20.53
2018-09-27T07:17:50.784Z,20.73
2018-09-27T07:20:22.153Z,21.33
2018-09-27T07:22:54.998Z,22.90
2018-09-27T07:25:26.270Z,22.20
2018-09-27T07:27:58.403Z,19.90
2018-09-27T07:30:29.785Z,21.20
2018-09-27T07:33:03.727Z,21.10
2018-09-27T07:35:34.870Z,18.75
2018-09-27T07:38:07.216Z,19.37
2018-09-27T07:40:38.031Z,18.20
2018-09-27T07:43:09.599Z,19.37
2018-09-27T07:45:41.014Z,19.70
2018-09-27T07:48:12.391Z,16.85
2018-09-27T07:50:43.697Z,17.27
2018-09-27T07:53:15.156Z,17.27
2018-09-27T07:55:46.514Z,17.80
2018-09-27T07:58:17.813Z,16.57
2018-09-27T08:00:49.193Z,17.30
2018-09-27T08:03:20.847Z,18.15
2018-09-27T08:05:52.094Z,18.02
2018-09-27T08:08:24.008Z,15.75
2018-09-27T08:10:55.635Z,18.10
2018-09-27T08:13:26.978Z,17.27
2018-09-27T08:15:58.242Z,16.53
2018-09-27T08:18:30.899Z,18.73
2018-09-27T08:21:02.517Z,17.07
2018-09-27T08:23:34.154Z,16.60
2018-09-27T08:26:05.572Z,18.07
2018-09-27T08:28:37.294Z,16.40
2018-09-27T08:31:08.437Z,16.50
2018-09-27T08:33:40.790Z,15.00
2018-09-27T08:36:12.178Z,17.05
2018-09-27T08:38:43.872Z,15.98
2018-09-27T08:41:15.258Z,15.47
2018-09-27T08:43:47.083Z,15.60
2018-09-27T08:46:18.100Z,15.23
2018-09-27T08:48:49.650Z,13.80
2018-09-27T08:51:20.791Z,14.87
2018-09-27T08:53:52.543Z,15.88
2018-09-27T08:56:23.969Z,14.70
2018-09-27T08:58:55.306Z,15.47
2018-09-27T09:01:26.716Z,15.03
2018-09-27T09:03:58.631Z,15.25
2018-09-27T09:06:29.986Z,21.05
2018-09-27T09:09:02.610Z,25.27
2018-09-27T09:11:33.928Z,25.37
2018-09-27T09:14:06.216Z,25.65
2018-09-27T09:16:37.701Z,24.10
2018-09-27T09:19:09.362Z,24.90
2018-09-27T09:21:40.728Z,22.70
2018-09-27T09:24:12.049Z,23.23
2018-09-27T09:26:43.427Z,24.70
2018-09-27T09:29:14.866Z,21.90
2018-09-27T09:31:46.424Z,25.20
2018-09-27T09:34:19.681Z,23.83
2018-09-27T09:36:50.734Z,25.83
2018-09-27T09:39:22.334Z,25.57
2018-09-27T09:41:53.609Z,24.93
2018-09-27T09:44:25.122Z,27.40
2018-09-27T09:46:56.354Z,28.60
2018-09-27T09:49:27.855Z,25.87
2018-09-27T09:51:59.134Z,28.63
2018-09-27T09:54:30.522Z,25.10
2018-09-27T09:57:02.222Z,26.63
2018-09-27T09:59:33.961Z,23.47
2018-09-27T10:02:05.310Z,31.30
2018-09-27T10:04:36.938Z,28.90
2018-09-27T10:07:08.207Z,31.87
2018-09-27T10:09:40.026Z,31.00
2018-09-27T10:12:11.258Z,31.80
2018-09-27T10:14:42.761Z,31.67
2018-09-27T10:17:13.822Z,30.40
2018-09-27T10:19:45.372Z,30.77
2018-09-27T10:22:16.899Z,27.53
2018-09-27T10:24:48.316Z,28.70
2018-09-27T10:27:19.627Z,28.07
2018-09-27T10:29:51.237Z,27.57
2018-09-27T10:32:22.635Z,29.90
2018-09-27T10:34:55.438Z,26.73
2018-09-27T10:37:26.781Z,26.13
2018-09-27T10:39:58.242Z,25.90
2018-09-27T10:42:29.490Z,25.47
2018-09-27T10:45:00.974Z,25.60
2018-09-27T10:47:32.787Z,25.50
2018-09-27T10:50:05.534Z,24.30
2018-09-27T10:52:36.677Z,26.10
2018-09-27T10:55:09.239Z,26.97
2018-09-27T10:57:40.518Z,27.00
2018-09-27T11:00:16.595Z,26.03
2018-09-27T11:02:48.968Z,26.00
2018-09-27T11:05:20.932Z,24.00
2018-09-27T11:07:52.693Z,24.60
2018-09-27T11:10:24.319Z,25.30
2018-09-27T11:12:55.819Z,24.13
2018-09-27T11:15:27.604Z,25.33
2018-09-27T11:17:58.925Z,26.47
2018-09-27T11:20:30.414Z,25.67
2018-09-27T11:23:01.738Z,25.60
2018-09-27T11:25:33.166Z,26.50
2018-09-27T11:28:04.046Z,23.27
2018-09-27T11:30:36.201Z,24.30
2018-09-27T11:33:07.286Z,30.07
2018-09-27T11:35:41.852Z,24.23
2018-09-27T11:38:13.126Z,22.43
2018-09-27T11:40:44.621Z,23.60
2018-09-27T11:43:16.688Z,25.03
2018-09-27T11:45:47.959Z,25.60
2018-09-27T11:48:21.149Z,25.47
2018-09-27T11:50:52.740Z,25.60
2018-09-27T11:53:24.773Z,27.13
2018-09-27T11:55:56.568Z,27.53
2018-09-27T11:58:27.617Z,28.50
2018-09-27T12:00:59.041Z,29.17
2018-09-27T12:03:30.039Z,26.47
2018-09-27T12:06:02.294Z,27.10
2018-09-27T12:08:33.256Z,27.10
2018-09-27T12:11:04.865Z,25.60
2018-09-27T12:13:35.930Z,28.00
2018-09-27T12:16:07.837Z,28.83
2018-09-27T12:18:38.800Z,26.83
2018-09-27T12:21:09.927Z,27.27
2018-09-27T12:23:41.798Z,25.90
2018-09-27T12:26:13.031Z,26.67
2018-09-27T12:28:44.128Z,26.67
2018-09-27T12:31:15.918Z,25.57
2018-09-27T12:33:46.762Z,26.80
2018-09-27T12:36:20.562Z,27.07
2018-09-27T12:38:51.811Z,26.73
2018-09-27T12:41:23.130Z,26.13
2018-09-27T12:43:54.326Z,26.20
2018-09-27T12:46:26.497Z,29.27
2018-09-27T12:48:57.609Z,25.27
2018-09-27T12:51:29.248Z,28.03
2018-09-27T12:54:00.120Z,27.00
2018-09-27T12:56:31.185Z,27.67
2018-09-27T12:59:02.326Z,25.80
2018-09-27T13:01:33.418Z,23.60
2018-09-27T13:04:05.252Z,27.40
2018-09-27T13:06:36.817Z,28.53
2018-09-27T13:09:10.359Z,30.27
2018-09-27T13:11:41.686Z,28.57
2018-09-27T13:14:12.765Z,30.00
2018-09-27T13:16:44.161Z,27.63
2018-09-27T13:19:15.394Z,26.13
2018-09-27T13:21:46.801Z,25.20
2018-09-27T13:24:17.830Z,26.97
2018-09-27T13:26:48.992Z,25.80
2018-09-27T13:29:19.931Z,25.57
2018-09-27T13:31:51.152Z,24.43
2018-09-27T13:34:22.083Z,27.57
2018-09-27T13:36:54.458Z,26.70
2018-09-27T13:39:25.448Z,25.17
2018-09-27T13:41:56.494Z,27.13
2018-09-27T13:44:27.444Z,27.87
2018-09-27T13:46:58.626Z,25.00
2018-09-27T13:49:29.503Z,26.47
2018-09-27T13:52:00.617Z,26.37
2018-09-27T13:54:31.494Z,24.63
2018-09-27T13:57:03.439Z,25.83
2018-09-27T13:59:34.389Z,25.03
2018-09-27T14:02:05.555Z,25.40
2018-09-27T14:04:36.787Z,26.03
2018-09-27T14:07:08.622Z,24.80
2018-09-27T14:09:39.699Z,25.40
2018-09-27T14:12:10.890Z,24.90
2018-09-27T14:14:41.964Z,23.50
2018-09-27T14:17:13.289Z,23.70
2018-09-27T14:19:44.218Z,24.57
2018-09-27T14:22:15.491Z,23.73
2018-09-27T14:24:46.490Z,23.23
2018-09-27T14:27:17.798Z,24.43
2018-09-27T14:29:48.817Z,23.97
2018-09-27T14:32:20.079Z,24.53
2018-09-27T14:34:51.129Z,24.17
2018-09-27T14:37:23.258Z,23.93
2018-09-27T14:39:54.137Z,24.57
2018-09-27T14:42:25.500Z,23.80
2018-09-27T14:44:56.486Z,23.80
2018-09-27T14:47:27.785Z,23.60
2018-09-27T14:49:58.969Z,21.63
2018-09-27T14:52:30.142Z,23.30
2018-09-27T14:55:01.142Z,22.20
2018-09-27T14:57:32.526Z,23.80
2018-09-27T15:00:03.494Z,24.03
2018-09-27T15:02:35.137Z,23.07
2018-09-27T15:05:06.501Z,24.70
2018-09-27T15:07:37.836Z,25.10
2018-09-27T15:10:08.928Z,22.17
2018-09-27T15:12:40.656Z,23.80
2018-09-27T15:15:11.695Z,23.97
2018-09-27T15:17:42.977Z,22.27
2018-09-27T15:20:13.978Z,24.23
2018-09-27T15:22:45.369Z,23.90
2018-09-27T15:25:16.387Z,23.90
2018-09-27T15:27:47.451Z,24.10
2018-09-27T15:30:18.374Z,26.00
2018-09-27T15:32:49.912Z,25.73
2018-09-27T15:35:20.975Z,23.87
2018-09-27T15:37:54.207Z,24.50
2018-09-27T15:40:25.121Z,25.10
2018-09-27T15:42:56.387Z,24.70
2018-09-27T15:45:27.238Z,23.97
2018-09-27T15:47:58.767Z,25.87
2018-09-27T15:50:29.699Z,25.47
2018-09-27T15:53:00.787Z,25.30
2018-09-27T15:55:31.762Z,24.80
2018-09-27T15:58:04.019Z,24.67
2018-09-27T16:00:35.143Z,25.47
2018-09-27T16:03:07.310Z,23.97
2018-09-27T16:05:38.187Z,24.73
2018-09-27T16:08:09.471Z,23.00
2018-09-27T16:10:40.397Z,25.37
2018-09-27T16:13:11.628Z,24.63
2018-09-27T16:15:42.685Z,24.37
2018-09-27T16:18:13.862Z,26.00
2018-09-27T16:20:44.835Z,25.30
2018-09-27T16:23:15.995Z,24.97
2018-09-27T16:25:46.973Z,28.37
2018-09-27T16:28:18.413Z,26.20
2018-09-27T16:30:49.458Z,25.43
2018-09-27T16:33:21.100Z,24.80
2018-09-27T16:35:52.039Z,24.77
2018-09-27T16:38:24.358Z,25.47
2018-09-27T16:40:55.306Z,26.03
2018-09-27T16:43:26.406Z,24.53
2018-09-27T16:45:57.426Z,26.13
2018-09-27T16:48:28.799Z,25.07
2018-09-27T16:50:59.746Z,24.50
2018-09-27T16:53:30.851Z,24.00
2018-09-27T16:56:02.254Z,24.47
2018-09-27T16:58:33.542Z,22.77
2018-09-27T17:01:05.350Z,23.77
2018-09-27T17:03:36.483Z,23.40
2018-09-27T17:06:07.407Z,23.83
2018-09-27T17:08:38.910Z,24.30
2018-09-27T17:11:10.063Z,24.00
2018-09-27T17:13:41.310Z,22.87
2018-09-27T17:16:12.254Z,22.57
2018-09-27T17:18:43.535Z,22.20
2018-09-27T17:21:14.470Z,22.40
2018-09-27T17:23:45.615Z,21.73
2018-09-27T17:26:16.653Z,19.03
2018-09-27T17:28:47.743Z,22.97
2018-09-27T17:31:18.631Z,22.40
2018-09-27T17:33:49.902Z,22.00
2018-09-27T17:36:20.845Z,21.50
2018-09-27T17:38:53.886Z,21.10
2018-09-27T17:41:24.684Z,20.63
2018-09-27T17:43:56.066Z,22.20
2018-09-27T17:46:27.005Z,20.90
2018-09-27T17:48:58.083Z,20.50
2018-09-27T17:51:29.055Z,20.50
2018-09-27T17:54:00.326Z,21.10
2018-09-27T17:56:31.500Z,21.33
2018-09-27T17:59:02.742Z,20.97
2018-09-27T18:01:34.061Z,22.40
2018-09-27T18:04:05.291Z,20.63
2018-09-27T18:06:36.336Z,21.80
2018-09-27T18:09:11.313Z,21.63
2018-09-27T18:11:43.824Z,19.63
2018-09-27T18:14:14.914Z,21.57
2018-09-27T18:16:46.671Z,20.60
2018-09-27T18:19:18.494Z,20.70
2018-09-27T18:21:49.600Z,20.40
2018-09-27T18:24:20.826Z,20.70
2018-09-27T18:26:51.952Z,18.83
2018-09-27T18:29:23.491Z,20.10
2018-09-27T18:31:57.745Z,20.80
2018-09-27T18:34:29.151Z,20.80
2018-09-27T18:37:00.506Z,20.73
2018-09-27T18:39:33.019Z,20.70
2018-09-27T18:42:04.296Z,21.47
2018-09-27T18:44:35.561Z,22.70
2018-09-27T18:47:06.497Z,22.70
2018-09-27T18:49:38.731Z,20.90
2018-09-27T18:52:09.738Z,21.10
2018-09-27T18:54:41.034Z,21.43
2018-09-27T18:57:12.494Z,21.67
2018-09-27T18:59:43.702Z,20.97
2018-09-27T19:02:14.725Z,21.87
2018-09-27T19:04:46.285Z,20.00
2018-09-27T19:07:17.317Z,20.43
2018-09-27T19:09:49.435Z,21.80
2018-09-27T19:12:20.458Z,21.60
2018-09-27T19:14:52.063Z,21.27
2018-09-27T19:17:23.149Z,21.40
2018-09-27T19:19:54.385Z,19.60
2018-09-27T19:22:25.359Z,20.37
2018-09-27T19:24:56.699Z,20.83
2018-09-27T19:27:27.994Z,21.07
2018-09-27T19:29:59.589Z,24.00
2018-09-27T19:32:30.530Z,22.73
2018-09-27T19:35:02.546Z,21.73
2018-09-27T19:37:33.618Z,22.33
2018-09-27T19:40:05.869Z,23.00
2018-09-27T19:42:36.807Z,23.03
2018-09-27T19:45:08.242Z,24.13
2018-09-27T19:47:39.285Z,22.43
2018-09-27T19:50:11.034Z,23.30
2018-09-27T19:52:42.614Z,22.87
2018-09-27T19:55:14.313Z,21.60
2018-09-27T19:57:45.790Z,22.00
2018-09-27T20:00:17.167Z,22.07
2018-09-27T20:02:48.402Z,22.60
2018-09-27T20:05:19.958Z,22.07
2018-09-27T20:07:51.002Z,24.60
2018-09-27T20:10:22.620Z,22.80
2018-09-27T20:12:53.801Z,22.47
2018-09-27T20:15:25.191Z,24.20
2018-09-27T20:17:56.256Z,23.37
2018-09-27T20:20:27.852Z,23.40
2018-09-27T20:22:58.985Z,21.67
2018-09-27T20:25:30.521Z,22.37
2018-09-27T20:28:04.963Z,22.87
2018-09-27T20:30:36.829Z,23.70
2018-09-27T20:33:09.122Z,25.27
2018-09-27T20:35:40.757Z,23.20
2018-09-27T20:38:11.963Z,24.30
2018-09-27T20:40:44.871Z,24.20
2018-09-27T20:43:16.081Z,25.27
2018-09-27T20:45:47.810Z,24.77
2018-09-27T20:48:18.986Z,23.50
2018-09-27T20:50:50.622Z,24.23
2018-09-27T20:53:21.677Z,22.70
2018-09-27T20:55:53.778Z,24.33
2018-09-27T20:58:25.175Z,24.23
2018-09-27T21:00:56.618Z,24.33
2018-09-27T21:03:27.858Z,24.13
2018-09-27T21:05:59.609Z,24.03
2018-09-27T21:08:30.560Z,24.83
2018-09-27T21:11:02.034Z,26.63
2018-09-27T21:13:32.994Z,26.20
2018-09-27T21:16:05.046Z,28.23
2018-09-27T21:18:36.073Z,28.43
2018-09-27T21:21:07.178Z,29.53
2018-09-27T21:23:38.086Z,29.30
2018-09-27T21:26:09.335Z,32.57
2018-09-27T21:28:40.497Z,32.03
2018-09-27T21:31:11.753Z,32.77
2018-09-27T21:33:42.665Z,34.70
2018-09-27T21:36:14.393Z,31.73
2018-09-27T21:38:45.454Z,37.63
2018-09-27T21:41:17.811Z,36.03
2018-09-27T21:43:48.792Z,36.77
2018-09-27T21:46:20.487Z,35.80
2018-09-27T21:48:51.550Z,38.37
2018-09-27T21:51:22.765Z,40.97
2018-09-27T21:53:53.741Z,40.87
2018-09-27T21:56:24.886Z,39.37
2018-09-27T21:58:55.923Z,40.40
2018-09-27T22:01:27.026Z,38.70
2018-09-27T22:03:57.977Z,39.33
2018-09-27T22:06:29.346Z,39.57
2018-09-27T22:09:00.430Z,40.20
2018-09-27T22:11:31.619Z,37.43
2018-09-27T22:14:02.608Z,39.50
2018-09-27T22:16:34.154Z,41.60
2018-09-27T22:19:05.197Z,37.93
2018-09-27T22:21:36.461Z,39.57
2018-09-27T22:24:07.666Z,40.13
2018-09-27T22:26:39.566Z,41.50
2018-09-27T22:29:10.674Z,42.70
2018-09-27T22:31:42.563Z,40.70
2018-09-27T22:34:14.002Z,42.33
2018-09-27T22:36:45.181Z,39.73
2018-09-27T22:39:16.196Z,40.83
2018-09-27T22:41:49.033Z,40.60
2018-09-27T22:44:20.030Z,39.27
2018-09-27T22:46:51.278Z,40.67
2018-09-27T22:49:22.345Z,38.90
2018-09-27T22:51:53.603Z,39.07
2018-09-27T22:54:24.566Z,39.67
2018-09-27T22:56:55.710Z,39.57
2018-09-27T22:59:26.699Z,40.20
2018-09-27T23:01:58.745Z,39.80
2018-09-27T23:04:29.745Z,40.50
2018-09-27T23:07:01.441Z,38.50
2018-09-27T23:09:32.515Z,39.97
2018-09-27T23:12:06.258Z,38.27
2018-09-27T23:14:37.448Z,39.07
2018-09-27T23:17:09.245Z,40.87
2018-09-27T23:19:40.078Z,40.53
2018-09-27T23:22:11.366Z,38.30
2018-09-27T23:24:42.305Z,40.73
2018-09-27T23:27:13.401Z,38.60
2018-09-27T23:29:44.322Z,38.03
2018-09-27T23:32:15.756Z,39.70
2018-09-27T23:34:46.774Z,39.63
2018-09-27T23:37:18.214Z,40.90
2018-09-27T23:39:49.130Z,39.10
2018-09-27T23:42:21.733Z,41.60
2018-09-27T23:44:52.566Z,38.80
2018-09-27T23:47:23.899Z,39.90
2018-09-27T23:49:54.830Z,42.93
2018-09-27T23:52:25.830Z,39.87
2018-09-27T23:54:57.458Z,40.70
2018-09-27T23:57:29.338Z,38.50
